sensor_id;sensor_type;location;lat;lon;timestamp;temperature;humidity
26952;DHT22;14507;52.418;13.398;2023-04-24T00:00:23;11.80;99.90
26952;DHT22;14507;52.418;13.398;2023-04-24T00:02:49;11.80;99.90
26952;DHT22;14507;52.418;13.398;2023-04-24T00:05:16;11.80;99.90
26952;DHT22;14507;52.418;13.398;2023-04-24T00:07:44;11.80;99.90
26952;DHT22;14507;52.418;13.398;2023-04-24T00:10:11;11.70;99.90
26952;DHT22;14507;52.418;13.398;2023-04-24T00:12:37;11.70;99.90
26952;DHT22;14507;52.418;13.398;2023-04-24T00:15:03;11.70;99.90
26952;DHT22;14507;52.418;13.398;2023-04-24T00:17:29;11.60;99.90
26952;DHT22;14507;52.418;13.398;2023-04-24T00:19:54;11.60;99.90
26952;DHT22;14507;52.418;13.398;2023-04-24T00:22:28;11.60;99.90
26952;DHT22;14507;52.418;13.398;2023-04-24T00:24:54;11.60;99.90
26952;DHT22;14507;52.418;13.398;2023-04-24T00:27:20;11.60;99.90
26952;DHT22;14507;52.418;13.398;2023-04-24T00:29:46;11.60;99.90
26952;DHT22;14507;52.418;13.398;2023-04-24T00:32:12;11.60;99.90
26952;DHT22;14507;52.418;13.398;2023-04-24T00:34:37;11.50;99.90
26952;DHT22;14507;52.418;13.398;2023-04-24T00:37:03;11.50;99.90
26952;DHT22;14507;52.418;13.398;2023-04-24T00:39:29;11.50;99.90
26952;DHT22;14507;52.418;13.398;2023-04-24T00:41:55;11.60;99.90
26952;DHT22;14507;52.418;13.398;2023-04-24T00:44:22;11.60;99.90
26952;DHT22;14507;52.418;13.398;2023-04-24T00:46:49;11.50;99.90
26952;DHT22;14507;52.418;13.398;2023-04-24T00:49:18;11.50;99.90
26952;DHT22;14507;52.418;13.398;2023-04-24T00:51:44;11.50;99.90
26952;DHT22;14507;52.418;13.398;2023-04-24T00:54:11;11.50;99.90
26952;DHT22;14507;52.418;13.398;2023-04-24T00:56:37;11.50;99.90
26952;DHT22;14507;52.418;13.398;2023-04-24T00:59:03;11.50;99.90
26952;DHT22;14507;52.418;13.398;2023-04-24T01:01:29;11.40;99.90
26952;DHT22;14507;52.418;13.398;2023-04-24T01:03:57;11.40;99.90
26952;DHT22;14507;52.418;13.398;2023-04-24T01:06:23;11.30;99.90
26952;DHT22;14507;52.418;13.398;2023-04-24T01:08:52;11.40;99.90
26952;DHT22;14507;52.418;13.398;2023-04-24T01:11:19;11.30;99.90
26952;DHT22;14507;52.418;13.398;2023-04-24T01:13:45;11.30;99.90
26952;DHT22;14507;52.418;13.398;2023-04-24T01:16:16;11.30;99.90
26952;DHT22;14507;52.418;13.398;2023-04-24T01:18:43;11.30;99.90
26952;DHT22;14507;52.418;13.398;2023-04-24T01:21:14;11.40;99.90
26952;DHT22;14507;52.418;13.398;2023-04-24T01:23:40;11.30;99.90
26952;DHT22;14507;52.418;13.398;2023-04-24T01:26:06;11.30;99.90
26952;DHT22;14507;52.418;13.398;2023-04-24T01:28:31;11.20;99.90
26952;DHT22;14507;52.418;13.398;2023-04-24T01:30:57;11.20;99.90
26952;DHT22;14507;52.418;13.398;2023-04-24T01:33:23;11.20;99.90
26952;DHT22;14507;52.418;13.398;2023-04-24T01:35:49;11.20;99.90
26952;DHT22;14507;52.418;13.398;2023-04-24T01:38:14;11.20;99.90
26952;DHT22;14507;52.418;13.398;2023-04-24T01:40:40;11.20;99.90
26952;DHT22;14507;52.418;13.398;2023-04-24T01:43:06;11.20;99.90
26952;DHT22;14507;52.418;13.398;2023-04-24T01:45:32;11.20;99.90
26952;DHT22;14507;52.418;13.398;2023-04-24T01:47:58;11.20;99.90
26952;DHT22;14507;52.418;13.398;2023-04-24T01:50:24;11.20;99.90
26952;DHT22;14507;52.418;13.398;2023-04-24T01:52:49;11.20;99.90
26952;DHT22;14507;52.418;13.398;2023-04-24T01:55:15;11.20;99.90
26952;DHT22;14507;52.418;13.398;2023-04-24T01:57:41;11.10;99.90
26952;DHT22;14507;52.418;13.398;2023-04-24T02:00:07;11.20;99.90
26952;DHT22;14507;52.418;13.398;2023-04-24T02:02:33;11.20;99.90
26952;DHT22;14507;52.418;13.398;2023-04-24T02:04:59;11.10;99.90
26952;DHT22;14507;52.418;13.398;2023-04-24T02:07:24;11.10;99.90
26952;DHT22;14507;52.418;13.398;2023-04-24T02:09:50;11.20;99.90
26952;DHT22;14507;52.418;13.398;2023-04-24T02:12:16;11.10;99.90
26952;DHT22;14507;52.418;13.398;2023-04-24T02:14:43;11.10;99.90
26952;DHT22;14507;52.418;13.398;2023-04-24T02:17:09;11.20;99.90
26952;DHT22;14507;52.418;13.398;2023-04-24T02:19:37;11.20;99.90
26952;DHT22;14507;52.418;13.398;2023-04-24T02:22:03;11.20;99.90
26952;DHT22;14507;52.418;13.398;2023-04-24T02:24:28;11.20;99.90
26952;DHT22;14507;52.418;13.398;2023-04-24T02:26:54;11.20;99.90
26952;DHT22;14507;52.418;13.398;2023-04-24T02:29:20;11.20;99.90
26952;DHT22;14507;52.418;13.398;2023-04-24T02:31:45;11.30;99.90
26952;DHT22;14507;52.418;13.398;2023-04-24T02:34:11;11.20;99.90
26952;DHT22;14507;52.418;13.398;2023-04-24T02:36:39;11.20;99.90
26952;DHT22;14507;52.418;13.398;2023-04-24T02:39:05;11.20;99.90
26952;DHT22;14507;52.418;13.398;2023-04-24T02:41:30;11.20;99.90
26952;DHT22;14507;52.418;13.398;2023-04-24T02:44:00;11.20;99.90
26952;DHT22;14507;52.418;13.398;2023-04-24T02:46:26;11.20;99.90
26952;DHT22;14507;52.418;13.398;2023-04-24T02:48:52;11.20;99.90
26952;DHT22;14507;52.418;13.398;2023-04-24T02:51:17;11.20;99.90
26952;DHT22;14507;52.418;13.398;2023-04-24T02:53:43;11.20;99.90
26952;DHT22;14507;52.418;13.398;2023-04-24T02:56:09;11.20;99.90
26952;DHT22;14507;52.418;13.398;2023-04-24T02:58:37;11.20;99.90
26952;DHT22;14507;52.418;13.398;2023-04-24T03:01:03;11.20;99.90
26952;DHT22;14507;52.418;13.398;2023-04-24T03:03:29;11.30;99.90
26952;DHT22;14507;52.418;13.398;2023-04-24T03:05:54;11.30;99.90
26952;DHT22;14507;52.418;13.398;2023-04-24T03:08:20;11.30;99.90
26952;DHT22;14507;52.418;13.398;2023-04-24T03:10:46;11.30;99.90
26952;DHT22;14507;52.418;13.398;2023-04-24T03:13:12;11.30;99.90
26952;DHT22;14507;52.418;13.398;2023-04-24T03:15:37;11.40;99.90
26952;DHT22;14507;52.418;13.398;2023-04-24T03:18:03;11.40;99.90
26952;DHT22;14507;52.418;13.398;2023-04-24T03:20:29;11.40;99.90
26952;DHT22;14507;52.418;13.398;2023-04-24T03:22:55;11.40;99.90
26952;DHT22;14507;52.418;13.398;2023-04-24T03:25:21;11.40;99.90
26952;DHT22;14507;52.418;13.398;2023-04-24T03:27:47;11.40;99.90
26952;DHT22;14507;52.418;13.398;2023-04-24T03:30:13;11.40;99.90
26952;DHT22;14507;52.418;13.398;2023-04-24T03:32:38;11.50;99.90
26952;DHT22;14507;52.418;13.398;2023-04-24T03:35:06;11.50;99.90
26952;DHT22;14507;52.418;13.398;2023-04-24T03:37:32;11.50;99.90
26952;DHT22;14507;52.418;13.398;2023-04-24T03:39:58;11.50;99.90
26952;DHT22;14507;52.418;13.398;2023-04-24T03:42:23;11.50;99.90
26952;DHT22;14507;52.418;13.398;2023-04-24T03:44:52;11.50;99.90
26952;DHT22;14507;52.418;13.398;2023-04-24T03:47:18;11.60;99.90
26952;DHT22;14507;52.418;13.398;2023-04-24T03:49:43;11.60;99.90
26952;DHT22;14507;52.418;13.398;2023-04-24T03:52:09;11.60;99.90
26952;DHT22;14507;52.418;13.398;2023-04-24T03:54:35;11.60;99.90
26952;DHT22;14507;52.418;13.398;2023-04-24T03:57:00;11.60;99.90
26952;DHT22;14507;52.418;13.398;2023-04-24T03:59:26;11.70;99.90
26952;DHT22;14507;52.418;13.398;2023-04-24T04:01:52;11.70;99.90
26952;DHT22;14507;52.418;13.398;2023-04-24T04:04:18;11.70;99.90
26952;DHT22;14507;52.418;13.398;2023-04-24T04:06:43;11.70;99.90
26952;DHT22;14507;52.418;13.398;2023-04-24T04:09:10;11.70;99.90
26952;DHT22;14507;52.418;13.398;2023-04-24T04:11:35;11.70;99.90
26952;DHT22;14507;52.418;13.398;2023-04-24T04:14:01;11.80;99.90
26952;DHT22;14507;52.418;13.398;2023-04-24T04:16:27;11.80;99.90
26952;DHT22;14507;52.418;13.398;2023-04-24T04:18:53;11.80;99.90
26952;DHT22;14507;52.418;13.398;2023-04-24T04:21:18;11.80;99.90
26952;DHT22;14507;52.418;13.398;2023-04-24T04:23:44;11.80;99.90
26952;DHT22;14507;52.418;13.398;2023-04-24T04:26:11;11.80;99.90
26952;DHT22;14507;52.418;13.398;2023-04-24T04:28:38;11.80;99.90
26952;DHT22;14507;52.418;13.398;2023-04-24T04:31:04;11.80;99.90
26952;DHT22;14507;52.418;13.398;2023-04-24T04:33:30;11.80;99.90
26952;DHT22;14507;52.418;13.398;2023-04-24T04:35:57;11.90;99.90
26952;DHT22;14507;52.418;13.398;2023-04-24T04:38:23;11.90;99.90
26952;DHT22;14507;52.418;13.398;2023-04-24T04:40:49;11.90;99.90
26952;DHT22;14507;52.418;13.398;2023-04-24T04:43:15;11.90;99.90
26952;DHT22;14507;52.418;13.398;2023-04-24T04:45:41;11.90;99.90
26952;DHT22;14507;52.418;13.398;2023-04-24T04:48:09;12.00;99.90
26952;DHT22;14507;52.418;13.398;2023-04-24T04:50:37;12.00;99.90
26952;DHT22;14507;52.418;13.398;2023-04-24T04:53:03;12.00;99.90
26952;DHT22;14507;52.418;13.398;2023-04-24T04:55:28;12.10;99.90
26952;DHT22;14507;52.418;13.398;2023-04-24T04:57:54;12.10;99.90
26952;DHT22;14507;52.418;13.398;2023-04-24T05:00:21;12.10;99.90
26952;DHT22;14507;52.418;13.398;2023-04-24T05:02:47;12.20;99.90
26952;DHT22;14507;52.418;13.398;2023-04-24T05:05:13;12.20;99.90
26952;DHT22;14507;52.418;13.398;2023-04-24T05:07:38;12.20;99.90
26952;DHT22;14507;52.418;13.398;2023-04-24T05:10:04;12.30;99.90
26952;DHT22;14507;52.418;13.398;2023-04-24T05:12:30;12.30;99.90
26952;DHT22;14507;52.418;13.398;2023-04-24T05:14:56;12.40;99.90
26952;DHT22;14507;52.418;13.398;2023-04-24T05:17:21;12.50;99.90
26952;DHT22;14507;52.418;13.398;2023-04-24T05:19:47;12.50;99.90
26952;DHT22;14507;52.418;13.398;2023-04-24T05:22:13;12.60;99.90
26952;DHT22;14507;52.418;13.398;2023-04-24T05:24:40;12.70;99.90
26952;DHT22;14507;52.418;13.398;2023-04-24T05:27:05;12.80;99.90
26952;DHT22;14507;52.418;13.398;2023-04-24T05:29:31;13.00;99.90
26952;DHT22;14507;52.418;13.398;2023-04-24T05:31:58;13.20;99.90
26952;DHT22;14507;52.418;13.398;2023-04-24T05:34:24;13.50;99.90
26952;DHT22;14507;52.418;13.398;2023-04-24T05:36:50;13.70;99.90
26952;DHT22;14507;52.418;13.398;2023-04-24T05:39:16;13.80;99.90
26952;DHT22;14507;52.418;13.398;2023-04-24T05:41:42;14.30;99.90
26952;DHT22;14507;52.418;13.398;2023-04-24T05:44:08;14.80;99.90
26952;DHT22;14507;52.418;13.398;2023-04-24T05:46:34;15.20;99.90
26952;DHT22;14507;52.418;13.398;2023-04-24T05:49:00;15.50;99.90
26952;DHT22;14507;52.418;13.398;2023-04-24T05:51:26;15.60;99.90
26952;DHT22;14507;52.418;13.398;2023-04-24T05:53:52;15.70;99.90
26952;DHT22;14507;52.418;13.398;2023-04-24T05:56:18;15.70;99.90
26952;DHT22;14507;52.418;13.398;2023-04-24T05:58:44;15.80;99.90
26952;DHT22;14507;52.418;13.398;2023-04-24T06:01:10;16.00;99.90
26952;DHT22;14507;52.418;13.398;2023-04-24T06:03:37;16.10;99.90
26952;DHT22;14507;52.418;13.398;2023-04-24T06:06:03;16.40;99.90
26952;DHT22;14507;52.418;13.398;2023-04-24T06:08:28;16.80;99.90
26952;DHT22;14507;52.418;13.398;2023-04-24T06:10:54;17.20;99.90
26952;DHT22;14507;52.418;13.398;2023-04-24T06:13:20;17.70;99.90
26952;DHT22;14507;52.418;13.398;2023-04-24T06:15:45;18.00;99.90
26952;DHT22;14507;52.418;13.398;2023-04-24T06:18:11;18.20;99.90
26952;DHT22;14507;52.418;13.398;2023-04-24T06:20:38;18.70;99.90
26952;DHT22;14507;52.418;13.398;2023-04-24T06:23:04;18.70;99.90
26952;DHT22;14507;52.418;13.398;2023-04-24T06:25:30;18.50;99.90
26952;DHT22;14507;52.418;13.398;2023-04-24T06:27:56;18.30;99.90
26952;DHT22;14507;52.418;13.398;2023-04-24T06:30:22;18.00;99.90
26952;DHT22;14507;52.418;13.398;2023-04-24T06:32:48;17.80;99.90
26952;DHT22;14507;52.418;13.398;2023-04-24T06:35:13;17.70;99.90
26952;DHT22;14507;52.418;13.398;2023-04-24T06:37:40;18.00;99.90
26952;DHT22;14507;52.418;13.398;2023-04-24T06:40:07;18.50;99.90
26952;DHT22;14507;52.418;13.398;2023-04-24T06:42:33;18.70;99.90
26952;DHT22;14507;52.418;13.398;2023-04-24T06:44:58;18.90;99.90
26952;DHT22;14507;52.418;13.398;2023-04-24T06:47:24;19.10;99.10
26952;DHT22;14507;52.418;13.398;2023-04-24T06:49:50;19.20;99.20
26952;DHT22;14507;52.418;13.398;2023-04-24T06:52:18;19.70;98.80
26952;DHT22;14507;52.418;13.398;2023-04-24T06:54:44;20.10;98.10
26952;DHT22;14507;52.418;13.398;2023-04-24T06:57:10;20.90;97.20
26952;DHT22;14507;52.418;13.398;2023-04-24T06:59:36;21.70;95.60
26952;DHT22;14507;52.418;13.398;2023-04-24T07:02:04;22.20;93.60
26952;DHT22;14507;52.418;13.398;2023-04-24T07:04:30;22.70;93.00
26952;DHT22;14507;52.418;13.398;2023-04-24T07:06:56;22.80;92.00
26952;DHT22;14507;52.418;13.398;2023-04-24T07:09:24;22.70;92.40
26952;DHT22;14507;52.418;13.398;2023-04-24T07:11:54;22.80;92.00
26952;DHT22;14507;52.418;13.398;2023-04-24T07:14:20;22.60;91.50
26952;DHT22;14507;52.418;13.398;2023-04-24T07:16:51;22.40;92.20
26952;DHT22;14507;52.418;13.398;2023-04-24T07:19:17;22.50;91.80
26952;DHT22;14507;52.418;13.398;2023-04-24T07:21:42;22.90;91.60
26952;DHT22;14507;52.418;13.398;2023-04-24T07:24:08;23.30;90.10
26952;DHT22;14507;52.418;13.398;2023-04-24T07:26:38;23.30;89.80
26952;DHT22;14507;52.418;13.398;2023-04-24T07:29:05;23.50;90.00
26952;DHT22;14507;52.418;13.398;2023-04-24T07:31:31;23.60;89.40
26952;DHT22;14507;52.418;13.398;2023-04-24T07:33:57;23.40;88.90
26952;DHT22;14507;52.418;13.398;2023-04-24T07:36:24;23.00;88.70
26952;DHT22;14507;52.418;13.398;2023-04-24T07:38:51;23.10;89.00
26952;DHT22;14507;52.418;13.398;2023-04-24T07:41:17;23.40;87.90
26952;DHT22;14507;52.418;13.398;2023-04-24T07:43:43;23.90;87.50
26952;DHT22;14507;52.418;13.398;2023-04-24T07:46:09;24.10;85.00
26952;DHT22;14507;52.418;13.398;2023-04-24T07:48:35;24.50;84.50
26952;DHT22;14507;52.418;13.398;2023-04-24T07:51:01;24.50;84.10
26952;DHT22;14507;52.418;13.398;2023-04-24T07:53:27;24.20;83.20
26952;DHT22;14507;52.418;13.398;2023-04-24T07:55:55;23.90;84.10
26952;DHT22;14507;52.418;13.398;2023-04-24T07:58:21;24.20;83.30
26952;DHT22;14507;52.418;13.398;2023-04-24T08:00:47;24.40;82.20
26952;DHT22;14507;52.418;13.398;2023-04-24T08:03:12;24.40;82.20
26952;DHT22;14507;52.418;13.398;2023-04-24T08:05:38;24.30;81.10
26952;DHT22;14507;52.418;13.398;2023-04-24T08:08:04;24.30;80.10
26952;DHT22;14507;52.418;13.398;2023-04-24T08:10:30;24.30;81.50
26952;DHT22;14507;52.418;13.398;2023-04-24T08:12:56;24.20;81.90
26952;DHT22;14507;52.418;13.398;2023-04-24T08:15:21;23.70;81.30
26952;DHT22;14507;52.418;13.398;2023-04-24T08:17:47;23.20;83.00
26952;DHT22;14507;52.418;13.398;2023-04-24T08:20:13;22.70;85.80
26952;DHT22;14507;52.418;13.398;2023-04-24T08:22:42;22.40;86.10
26952;DHT22;14507;52.418;13.398;2023-04-24T08:25:09;22.30;86.20
26952;DHT22;14507;52.418;13.398;2023-04-24T08:27:35;22.70;84.80
26952;DHT22;14507;52.418;13.398;2023-04-24T08:30:06;23.00;81.90
26952;DHT22;14507;52.418;13.398;2023-04-24T08:32:32;23.10;81.50
26952;DHT22;14507;52.418;13.398;2023-04-24T08:34:58;23.00;81.60
26952;DHT22;14507;52.418;13.398;2023-04-24T08:37:25;22.80;80.40
26952;DHT22;14507;52.418;13.398;2023-04-24T08:39:50;22.60;81.70
26952;DHT22;14507;52.418;13.398;2023-04-24T08:42:17;22.20;82.20
26952;DHT22;14507;52.418;13.398;2023-04-24T08:44:44;22.20;84.70
26952;DHT22;14507;52.418;13.398;2023-04-24T08:47:11;22.20;85.10
26952;DHT22;14507;52.418;13.398;2023-04-24T08:49:38;22.40;83.90
26952;DHT22;14507;52.418;13.398;2023-04-24T08:52:04;22.60;85.40
26952;DHT22;14507;52.418;13.398;2023-04-24T08:54:31;23.00;82.30
26952;DHT22;14507;52.418;13.398;2023-04-24T08:57:01;22.70;82.80
26952;DHT22;14507;52.418;13.398;2023-04-24T08:59:28;22.30;85.30
26952;DHT22;14507;52.418;13.398;2023-04-24T09:01:55;22.10;85.90
26952;DHT22;14507;52.418;13.398;2023-04-24T09:04:22;21.90;86.60
26952;DHT22;14507;52.418;13.398;2023-04-24T09:06:50;22.20;86.60
26952;DHT22;14507;52.418;13.398;2023-04-24T09:09:17;22.20;84.50
26952;DHT22;14507;52.418;13.398;2023-04-24T09:11:44;22.10;84.40
26952;DHT22;14507;52.418;13.398;2023-04-24T09:14:10;21.60;85.30
26952;DHT22;14507;52.418;13.398;2023-04-24T09:16:36;21.10;86.40
26952;DHT22;14507;52.418;13.398;2023-04-24T09:19:02;20.70;89.40
26952;DHT22;14507;52.418;13.398;2023-04-24T09:21:32;20.40;90.70
26952;DHT22;14507;52.418;13.398;2023-04-24T09:24:05;20.10;91.50
26952;DHT22;14507;52.418;13.398;2023-04-24T09:26:32;19.80;91.60
26952;DHT22;14507;52.418;13.398;2023-04-24T09:28:58;19.60;92.30
26952;DHT22;14507;52.418;13.398;2023-04-24T09:31:27;19.30;93.30
26952;DHT22;14507;52.418;13.398;2023-04-24T09:38:58;19.00;93.90
26952;DHT22;14507;52.418;13.398;2023-04-24T09:41:24;19.20;94.80
26952;DHT22;14507;52.418;13.398;2023-04-24T09:43:50;19.30;93.20
26952;DHT22;14507;52.418;13.398;2023-04-24T09:46:18;19.30;93.20
26952;DHT22;14507;52.418;13.398;2023-04-24T09:48:44;19.40;93.30
26952;DHT22;14507;52.418;13.398;2023-04-24T09:51:09;19.30;93.10
26952;DHT22;14507;52.418;13.398;2023-04-24T09:53:38;19.30;93.30
26952;DHT22;14507;52.418;13.398;2023-04-24T09:56:08;19.30;93.20
26952;DHT22;14507;52.418;13.398;2023-04-24T09:58:35;19.30;95.50
26952;DHT22;14507;52.418;13.398;2023-04-24T10:01:02;19.30;93.40
26952;DHT22;14507;52.418;13.398;2023-04-24T10:03:34;19.40;94.30
26952;DHT22;14507;52.418;13.398;2023-04-24T10:06:01;19.60;94.10
26952;DHT22;14507;52.418;13.398;2023-04-24T10:08:33;19.90;93.60
26952;DHT22;14507;52.418;13.398;2023-04-24T10:10:59;20.20;93.40
26952;DHT22;14507;52.418;13.398;2023-04-24T10:13:25;20.60;92.80
26952;DHT22;14507;52.418;13.398;2023-04-24T10:15:51;20.70;90.60
26952;DHT22;14507;52.418;13.398;2023-04-24T10:18:17;20.60;91.00
26952;DHT22;14507;52.418;13.398;2023-04-24T10:20:45;20.40;90.50
26952;DHT22;14507;52.418;13.398;2023-04-24T10:23:10;20.40;91.50
26952;DHT22;14507;52.418;13.398;2023-04-24T10:25:37;20.40;91.20
26952;DHT22;14507;52.418;13.398;2023-04-24T10:28:03;20.40;90.60
26952;DHT22;14507;52.418;13.398;2023-04-24T10:30:32;20.40;90.10
26952;DHT22;14507;52.418;13.398;2023-04-24T10:33:02;20.40;90.60
26952;DHT22;14507;52.418;13.398;2023-04-24T10:35:31;20.30;90.50
26952;DHT22;14507;52.418;13.398;2023-04-24T10:38:08;20.00;90.50
26952;DHT22;14507;52.418;13.398;2023-04-24T10:40:36;19.80;91.10
26952;DHT22;14507;52.418;13.398;2023-04-24T10:43:03;19.60;91.60
26952;DHT22;14507;52.418;13.398;2023-04-24T10:45:32;19.50;92.80
26952;DHT22;14507;52.418;13.398;2023-04-24T10:48:02;19.40;92.40
26952;DHT22;14507;52.418;13.398;2023-04-24T10:50:29;19.40;92.60
26952;DHT22;14507;52.418;13.398;2023-04-24T10:53:06;19.30;92.50
26952;DHT22;14507;52.418;13.398;2023-04-24T10:55:48;19.00;93.10
26952;DHT22;14507;52.418;13.398;2023-04-24T10:58:15;18.90;93.70
26952;DHT22;14507;52.418;13.398;2023-04-24T11:00:43;19.00;93.40
26952;DHT22;14507;52.418;13.398;2023-04-24T11:05:59;19.40;93.90
26952;DHT22;14507;52.418;13.398;2023-04-24T11:08:37;19.70;94.20
26952;DHT22;14507;52.418;13.398;2023-04-24T11:11:09;20.00;93.40
26952;DHT22;14507;52.418;13.398;2023-04-24T11:16:29;20.10;92.20
26952;DHT22;14507;52.418;13.398;2023-04-24T11:19:02;20.10;92.60
26952;DHT22;14507;52.418;13.398;2023-04-24T11:26:51;19.60;97.30
26952;DHT22;14507;52.418;13.398;2023-04-24T11:29:20;19.20;99.90
26952;DHT22;14507;52.418;13.398;2023-04-24T11:31:46;18.70;99.90
26952;DHT22;14507;52.418;13.398;2023-04-24T11:34:17;18.40;99.90
26952;DHT22;14507;52.418;13.398;2023-04-24T11:36:46;18.10;99.90
26952;DHT22;14507;52.418;13.398;2023-04-24T11:39:13;18.00;99.90
26952;DHT22;14507;52.418;13.398;2023-04-24T11:41:39;18.00;99.90
26952;DHT22;14507;52.418;13.398;2023-04-24T11:44:08;18.30;99.90
26952;DHT22;14507;52.418;13.398;2023-04-24T11:46:34;18.40;99.90
26952;DHT22;14507;52.418;13.398;2023-04-24T11:49:00;18.50;99.90
26952;DHT22;14507;52.418;13.398;2023-04-24T11:51:27;18.60;99.90
26952;DHT22;14507;52.418;13.398;2023-04-24T11:53:56;18.60;99.90
26952;DHT22;14507;52.418;13.398;2023-04-24T11:56:23;18.70;99.90
26952;DHT22;14507;52.418;13.398;2023-04-24T11:58:52;18.60;99.90
26952;DHT22;14507;52.418;13.398;2023-04-24T12:01:18;18.50;99.90
26952;DHT22;14507;52.418;13.398;2023-04-24T12:03:48;18.50;99.90
26952;DHT22;14507;52.418;13.398;2023-04-24T12:06:14;18.60;99.90
26952;DHT22;14507;52.418;13.398;2023-04-24T12:08:40;18.60;99.90
26952;DHT22;14507;52.418;13.398;2023-04-24T12:11:07;18.70;99.90
26952;DHT22;14507;52.418;13.398;2023-04-24T12:13:34;18.80;99.90
26952;DHT22;14507;52.418;13.398;2023-04-24T12:16:03;19.00;99.90
26952;DHT22;14507;52.418;13.398;2023-04-24T12:18:29;19.20;99.90
26952;DHT22;14507;52.418;13.398;2023-04-24T12:20:55;19.20;99.90
26952;DHT22;14507;52.418;13.398;2023-04-24T12:23:34;19.40;99.90
26952;DHT22;14507;52.418;13.398;2023-04-24T12:29:19;19.60;98.40
26952;DHT22;14507;52.418;13.398;2023-04-24T12:31:45;19.50;96.80
26952;DHT22;14507;52.418;13.398;2023-04-24T12:34:21;19.50;95.80
26952;DHT22;14507;52.418;13.398;2023-04-24T12:36:48;19.40;96.50
26952;DHT22;14507;52.418;13.398;2023-04-24T12:39:18;19.40;93.70
26952;DHT22;14507;52.418;13.398;2023-04-24T12:42:11;19.30;91.40
26952;DHT22;14507;52.418;13.398;2023-04-24T12:44:37;19.10;85.80
26952;DHT22;14507;52.418;13.398;2023-04-24T12:47:02;19.00;85.90
26952;DHT22;14507;52.418;13.398;2023-04-24T12:49:30;18.90;88.90
26952;DHT22;14507;52.418;13.398;2023-04-24T12:51:56;18.90;86.50
26952;DHT22;14507;52.418;13.398;2023-04-24T12:54:22;18.90;88.00
26952;DHT22;14507;52.418;13.398;2023-04-24T12:56:47;18.90;87.60
26952;DHT22;14507;52.418;13.398;2023-04-24T12:59:13;19.00;84.70
26952;DHT22;14507;52.418;13.398;2023-04-24T13:01:39;19.00;84.50
26952;DHT22;14507;52.418;13.398;2023-04-24T13:04:05;19.10;85.90
26952;DHT22;14507;52.418;13.398;2023-04-24T13:06:31;19.20;81.90
26952;DHT22;14507;52.418;13.398;2023-04-24T13:08:57;19.30;83.50
26952;DHT22;14507;52.418;13.398;2023-04-24T13:11:23;19.30;81.60
26952;DHT22;14507;52.418;13.398;2023-04-24T13:13:50;19.50;82.10
26952;DHT22;14507;52.418;13.398;2023-04-24T13:16:15;19.60;81.00
26952;DHT22;14507;52.418;13.398;2023-04-24T13:18:41;19.70;79.10
26952;DHT22;14507;52.418;13.398;2023-04-24T13:21:06;19.70;77.70
26952;DHT22;14507;52.418;13.398;2023-04-24T13:23:33;19.60;77.30
26952;DHT22;14507;52.418;13.398;2023-04-24T13:25:58;19.50;78.40
26952;DHT22;14507;52.418;13.398;2023-04-24T13:28:25;19.40;77.00
26952;DHT22;14507;52.418;13.398;2023-04-24T13:30:51;19.20;79.50
26952;DHT22;14507;52.418;13.398;2023-04-24T13:33:16;19.10;77.70
26952;DHT22;14507;52.418;13.398;2023-04-24T13:35:42;19.10;77.60
26952;DHT22;14507;52.418;13.398;2023-04-24T13:38:08;19.10;78.10
26952;DHT22;14507;52.418;13.398;2023-04-24T13:40:33;19.10;78.20
26952;DHT22;14507;52.418;13.398;2023-04-24T13:42:59;19.00;76.40
26952;DHT22;14507;52.418;13.398;2023-04-24T13:45:25;18.90;76.30
26952;DHT22;14507;52.418;13.398;2023-04-24T13:47:51;18.80;75.50
26952;DHT22;14507;52.418;13.398;2023-04-24T13:50:16;18.70;76.00
26952;DHT22;14507;52.418;13.398;2023-04-24T13:52:42;18.80;79.30
26952;DHT22;14507;52.418;13.398;2023-04-24T13:55:08;18.80;78.50
26952;DHT22;14507;52.418;13.398;2023-04-24T13:57:33;18.80;77.20
26952;DHT22;14507;52.418;13.398;2023-04-24T13:59:59;18.70;77.20
26952;DHT22;14507;52.418;13.398;2023-04-24T14:02:27;18.70;78.30
26952;DHT22;14507;52.418;13.398;2023-04-24T14:04:53;18.50;77.30
26952;DHT22;14507;52.418;13.398;2023-04-24T14:07:18;18.40;78.40
26952;DHT22;14507;52.418;13.398;2023-04-24T14:09:44;18.40;76.70
26952;DHT22;14507;52.418;13.398;2023-04-24T14:12:09;18.40;77.10
26952;DHT22;14507;52.418;13.398;2023-04-24T14:14:35;18.50;75.40
26952;DHT22;14507;52.418;13.398;2023-04-24T14:17:01;18.50;75.40
26952;DHT22;14507;52.418;13.398;2023-04-24T14:19:26;18.50;74.50
26952;DHT22;14507;52.418;13.398;2023-04-24T14:21:52;18.40;73.30
26952;DHT22;14507;52.418;13.398;2023-04-24T14:24:18;18.40;74.70
26952;DHT22;14507;52.418;13.398;2023-04-24T14:26:43;18.30;75.40
26952;DHT22;14507;52.418;13.398;2023-04-24T14:29:09;18.40;75.20
26952;DHT22;14507;52.418;13.398;2023-04-24T14:31:35;18.50;76.00
26952;DHT22;14507;52.418;13.398;2023-04-24T14:34:00;18.50;75.90
26952;DHT22;14507;52.418;13.398;2023-04-24T14:36:26;18.50;76.50
26952;DHT22;14507;52.418;13.398;2023-04-24T14:38:51;18.50;76.70
26952;DHT22;14507;52.418;13.398;2023-04-24T14:41:17;18.60;76.50
26952;DHT22;14507;52.418;13.398;2023-04-24T14:43:43;18.60;77.10
26952;DHT22;14507;52.418;13.398;2023-04-24T14:46:08;18.70;77.90
26952;DHT22;14507;52.418;13.398;2023-04-24T14:48:34;18.70;76.00
26952;DHT22;14507;52.418;13.398;2023-04-24T14:51:00;18.70;76.00
26952;DHT22;14507;52.418;13.398;2023-04-24T14:53:25;18.70;81.30
26952;DHT22;14507;52.418;13.398;2023-04-24T14:55:51;18.60;75.60
26952;DHT22;14507;52.418;13.398;2023-04-24T14:58:17;18.50;76.60
26952;DHT22;14507;52.418;13.398;2023-04-24T15:00:42;18.30;75.60
26952;DHT22;14507;52.418;13.398;2023-04-24T15:03:08;18.20;77.30
26952;DHT22;14507;52.418;13.398;2023-04-24T15:05:33;18.10;76.50
26952;DHT22;14507;52.418;13.398;2023-04-24T15:07:59;17.90;77.80
26952;DHT22;14507;52.418;13.398;2023-04-24T15:10:25;17.90;79.40
26952;DHT22;14507;52.418;13.398;2023-04-24T15:12:51;17.90;79.10
26952;DHT22;14507;52.418;13.398;2023-04-24T15:15:17;17.90;78.60
26952;DHT22;14507;52.418;13.398;2023-04-24T15:17:42;17.90;78.90
26952;DHT22;14507;52.418;13.398;2023-04-24T15:20:08;18.00;76.50
26952;DHT22;14507;52.418;13.398;2023-04-24T15:22:34;17.90;76.20
26952;DHT22;14507;52.418;13.398;2023-04-24T15:25:00;17.80;77.00
26952;DHT22;14507;52.418;13.398;2023-04-24T15:27:26;17.70;78.40
26952;DHT22;14507;52.418;13.398;2023-04-24T15:29:52;17.60;78.10